Estación de Huelquen
Ultimos registro cada 15 minutos 52
| N° | Estación | Fecha / Hora | Temperatura | Humedad | Lluvia | Velocidad | Dirección | Radiación | Presion |
| 52 | Huelquen | 04-05-2026 17:15 | 20,6 | 38 | 0 | 0 | 181 | 42 | 1012,6 |
| 51 | Huelquen | 04-05-2026 17:00 | 20,9 | 37 | 0 | 0 | 190 | 79 | 1012,7 |
| 50 | Huelquen | 04-05-2026 16:45 | 21,1 | 36 | 0 | 0 | 169 | 121 | 1012,9 |
| 49 | Huelquen | 04-05-2026 16:30 | 21,8 | 34 | 0 | 1,8 | 113 | 165 | 1013 |
| 48 | Huelquen | 04-05-2026 16:15 | 22,8 | 34 | 0 | 0 | 196 | 206 | 1013,2 |
| 47 | Huelquen | 04-05-2026 16:00 | 22,9 | 35 | 0 | 0 | 293 | 373 | 1013,3 |
| 46 | Huelquen | 04-05-2026 15:45 | 21,3 | 41 | 0 | 0 | 96 | 408 | 1013,3 |
| 45 | Huelquen | 04-05-2026 15:30 | 20,5 | 41 | 0 | 0 | 171 | 227 | 1013,5 |
| 44 | Huelquen | 04-05-2026 15:15 | 19,9 | 41 | 0 | 0 | 224 | 232 | 1013,5 |
| 43 | Huelquen | 04-05-2026 15:00 | 20 | 41 | 0 | 0 | 180 | 169 | 1013,6 |
| 42 | Huelquen | 04-05-2026 14:45 | 20,2 | 41 | 0 | 0 | 245 | 151 | 1013,8 |
| 41 | Huelquen | 04-05-2026 14:30 | 20,2 | 47 | 0 | 0 | 172 | 181 | 1014 |
| 40 | Huelquen | 04-05-2026 14:15 | 19,9 | 48 | 0 | 0 | 171 | 141 | 1014,2 |
| 39 | Huelquen | 04-05-2026 14:00 | 19,8 | 45 | 0 | 0 | 171 | 169 | 1014,4 |
| 38 | Huelquen | 04-05-2026 13:45 | 19,7 | 45 | 0 | 0 | 155 | 148 | 1014,6 |
| 37 | Huelquen | 04-05-2026 13:30 | 19,2 | 44 | 0 | 0 | 155 | 179 | 1014,8 |
| 36 | Huelquen | 04-05-2026 13:15 | 18,8 | 47 | 0 | 0 | 155 | 160 | 1014,9 |
| 35 | Huelquen | 04-05-2026 13:00 | 18,7 | 46 | 0 | 0 | 180 | 135 | 1015,1 |
| 34 | Huelquen | 04-05-2026 12:45 | 18,6 | 44 | 0 | 0 | 180 | 139 | 1015,4 |
| 33 | Huelquen | 04-05-2026 12:30 | 18,3 | 46 | 0 | 0 | 155 | 148 | 1015,3 |
| 32 | Huelquen | 04-05-2026 12:15 | 18 | 49 | 0 | 0 | 155 | 144 | 1015,3 |
| 31 | Huelquen | 04-05-2026 12:00 | 17,7 | 50 | 0 | 0 | 156 | 130 | 1015,4 |
| 30 | Huelquen | 04-05-2026 07:15 | 11,1 | 81 | 0 | 0 | 197 | 0 | 1015,5 |
| 29 | Huelquen | 04-05-2026 07:00 | 11,1 | 80 | 0 | 0 | 197 | 0 | 1015,5 |
| 28 | Huelquen | 04-05-2026 06:45 | 11,1 | 80 | 0 | 0 | 197 | 0 | 1015,3 |
| 27 | Huelquen | 04-05-2026 06:30 | 11,2 | 79 | 0 | 0 | 197 | 0 | 1015,2 |
| 26 | Huelquen | 04-05-2026 06:15 | 10,9 | 79 | 0 | 0 | 197 | 0 | 1015,2 |
| 25 | Huelquen | 04-05-2026 06:00 | 10,8 | 80 | 0 | 0 | 197 | 0 | 1015,1 |
| 24 | Huelquen | 04-05-2026 05:45 | 10,8 | 79 | 0 | 0 | 197 | 0 | 1015,2 |
| 23 | Huelquen | 04-05-2026 05:30 | 11,1 | 80 | 0 | 0 | 197 | 0 | 1015,2 |
| 22 | Huelquen | 04-05-2026 05:15 | 11,1 | 79 | 0 | 0 | 197 | 0 | 1015,2 |
| 21 | Huelquen | 04-05-2026 05:00 | 11,2 | 79 | 0 | 0 | 197 | 0 | 1015,3 |
| 20 | Huelquen | 04-05-2026 04:45 | 11,3 | 79 | 0 | 0 | 197 | 0 | 1015,2 |
| 19 | Huelquen | 04-05-2026 04:30 | 11,3 | 79 | 0 | 0 | 197 | 0 | 1015 |
| 18 | Huelquen | 04-05-2026 04:15 | 11,3 | 79 | 0 | 0 | 197 | 0 | 1014,8 |
| 17 | Huelquen | 04-05-2026 04:00 | 11,3 | 79 | 0 | 0 | 197 | 0 | 1015 |
| 16 | Huelquen | 04-05-2026 03:45 | 11,4 | 79 | 0 | 0 | 197 | 0 | 1015,2 |
| 15 | Huelquen | 04-05-2026 03:30 | 11,5 | 79 | 0 | 0 | 197 | 0 | 1015,6 |
| 14 | Huelquen | 04-05-2026 03:15 | 11,7 | 78 | 0 | 0 | 197 | 0 | 1015,6 |
| 13 | Huelquen | 04-05-2026 03:00 | 11,8 | 78 | 0 | 0 | 197 | 0 | 1016 |
| 12 | Huelquen | 04-05-2026 02:45 | 11,8 | 77 | 0 | 0 | 197 | 0 | 1016,1 |
| 11 | Huelquen | 04-05-2026 02:30 | 12,1 | 77 | 0 | 0 | 197 | 0 | 1015,9 |
| 10 | Huelquen | 04-05-2026 02:15 | 12,2 | 77 | 0 | 0 | 197 | 0 | 1016 |
| 9 | Huelquen | 04-05-2026 02:00 | 12,2 | 76 | 0 | 0 | 197 | 0 | 1015,9 |
| 8 | Huelquen | 04-05-2026 01:45 | 12,1 | 75 | 0 | 0 | 197 | 0 | 1016,1 |
| 7 | Huelquen | 04-05-2026 01:30 | 12,1 | 76 | 0 | 0 | 197 | 0 | 1016,3 |
| 6 | Huelquen | 04-05-2026 01:15 | 12 | 77 | 0 | 0 | 197 | 0 | 1016,6 |
| 5 | Huelquen | 04-05-2026 01:00 | 12,1 | 78 | 0 | 0 | 197 | 0 | 1017 |
| 4 | Huelquen | 04-05-2026 00:45 | 12,3 | 77 | 0 | 0 | 197 | 0 | 1017,2 |
| 3 | Huelquen | 04-05-2026 00:30 | 12,3 | 77 | 0 | 0 | 197 | 0 | 1017,1 |
| 2 | Huelquen | 04-05-2026 00:15 | 12,6 | 77 | 0 | 0 | 197 | 0 | 1017 |
| 1 | Huelquen | 04-05-2026 00:00 | 12,7 | 76 | 0 | 0 | 197 | 0 | 1017,2 |